Tuesday, January 15, 2019, 6:25 PM EST
Back to Local

KPYM, Plymouth Municipal Airport

Location: Carver, MA, United States Lat: 41.9
Local Time: 6:25 PM EST (23:25 GMT) Lon: -70.733
Time Zone: US/Eastern Elev: 147 ft

Show me the last for .
Show Decoded

2019-01-15 17:52 METAR KPYM 152252Z AUTO 00000KT 10SM CLR M02/M09 A3008 RMK AO2 SLP188 T10221089
                 =
2019-01-15 16:52 METAR KPYM 152152Z AUTO 10004KT 10SM CLR M02/M09 A3006 RMK AO2 SLP182 T10171089
                 =
2019-01-15 15:52 METAR KPYM 152052Z AUTO 00000KT 10SM CLR 01/M10 A3006 RMK AO2 SLP181 T00061100
                 50003 =
2019-01-15 14:52 METAR KPYM 151952Z AUTO 32005KT 10SM CLR 01/M10 A3006 RMK AO2 SLP181 T00061100 =
2019-01-15 13:52 METAR KPYM 151852Z AUTO 31004KT 10SM CLR 01/M11 A3005 RMK AO2 SLP178 T00111106 =
2019-01-15 12:52 METAR KPYM 151752Z AUTO 30007KT 280V340 10SM CLR 01/M12 A3005 RMK AO2 SLP178
                 T00061117 10006 21100 58014 =
2019-01-15 11:52 METAR KPYM 151652Z AUTO 29006KT 10SM CLR 00/M12 A3006 RMK AO2 SLP181 T00001122 =
2019-01-15 10:52 METAR KPYM 151552Z AUTO 30008KT 10SM CLR 00/M12 A3008 RMK AO2 SLP188 T00001122 =
2019-01-15 09:52 METAR KPYM 151452Z AUTO VRB06KT 10SM CLR M02/M11 A3009 RMK AO2 SLP191 T10171111
                 53012 =
2019-01-15 08:52 METAR KPYM 151352Z AUTO 30006KT 10SM CLR M04/M11 A3007 RMK AO2 SLP186 T10441111
                 =
2019-01-15 07:52 METAR KPYM 151252Z AUTO 00000KT 10SM CLR M08/M12 A3006 RMK AO2 SLP180 T10781117
                 =
2019-01-15 06:52 METAR KPYM 151152Z AUTO 29003KT 10SM CLR M09/M13 A3006 RMK AO2 SLP180 T10941128
                 11072 21106 53010 =
2019-01-15 05:52 METAR KPYM 151052Z AUTO 00000KT 10SM CLR M10/M13 A3005 RMK AO2 SLP177 T11001133
                 =
2019-01-15 04:52 METAR KPYM 150952Z AUTO 00000KT 10SM CLR M08/M12 A3003 RMK AO2 SLP171 T10781122
                 =
2019-01-15 03:52 METAR KPYM 150852Z AUTO 31003KT 10SM CLR M08/M12 A3003 RMK AO2 SLP169 T10781117
                 58007 =
2019-01-15 02:52 METAR KPYM 150752Z AUTO 00000KT 10SM CLR M07/M11 A3003 RMK AO2 SLP171 T10721111
                 =
2019-01-15 01:52 METAR KPYM 150652Z AUTO 29003KT 10SM CLR M07/M11 A3005 RMK AO2 SLP176 T10721111
                 =
2019-01-15 00:52 METAR KPYM 150552Z AUTO 29005KT 10SM CLR M07/M10 A3005 RMK AO2 SLP176 I6000
                 T10721100 11056 21083 58012 =
2019-01-14 23:52 METAR KPYM 150452Z AUTO 29006KT 10SM CLR M07/M09 A3005 RMK AO2 SLP178 T10671094
                 400061083 =
2019-01-14 22:52 METAR KPYM 150352Z AUTO 29004KT 10SM CLR M07/M09 A3007 RMK AO2 SLP186 I1000
                 T10721094 =
2019-01-14 21:52 METAR KPYM 150252Z AUTO 00000KT 10SM CLR M08/M11 A3008 RMK AO2 SLP187 I1000
                 I3000 T10781111 56009 =
2019-01-14 20:52 METAR KPYM 150152Z AUTO 00000KT 10SM CLR M07/M11 A3008 RMK AO2 SLP189 I1000
                 T10721106 =
2019-01-14 19:52 METAR KPYM 150052Z AUTO 00000KT 10SM CLR M07/M09 A3009 RMK AO2 SLP191 T10671094
                 =
2019-01-14 18:52 METAR KPYM 142352Z AUTO 00000KT 10SM CLR M06/M09 A3011 RMK AO2 SLP197 T10561089
                 10000 21056 58003 =

Support USWX by starting your Amazon purchase here.